sensor_id;sensor_type;location;lat;lon;timestamp;P1;durP1;ratioP1;P2;durP2;ratioP2
13228;SDS011;6680;53.220;10.402;2022-12-07T00:01:20;9.27;;;6.87;;
13228;SDS011;6680;53.220;10.402;2022-12-07T00:03:49;11.07;;;7.47;;
13228;SDS011;6680;53.220;10.402;2022-12-07T00:06:18;8.77;;;6.27;;
13228;SDS011;6680;53.220;10.402;2022-12-07T00:08:45;8.93;;;6.13;;
13228;SDS011;6680;53.220;10.402;2022-12-07T00:11:14;9.63;;;6.97;;
13228;SDS011;6680;53.220;10.402;2022-12-07T00:13:43;11.23;;;7.17;;
13228;SDS011;6680;53.220;10.402;2022-12-07T00:16:11;10.87;;;7.17;;
13228;SDS011;6680;53.220;10.402;2022-12-07T00:18:39;8.57;;;6.40;;
13228;SDS011;6680;53.220;10.402;2022-12-07T00:21:07;8.97;;;6.20;;
13228;SDS011;6680;53.220;10.402;2022-12-07T00:23:36;10.17;;;6.47;;
13228;SDS011;6680;53.220;10.402;2022-12-07T00:26:04;11.63;;;7.07;;
13228;SDS011;6680;53.220;10.402;2022-12-07T00:28:32;11.33;;;6.50;;
13228;SDS011;6680;53.220;10.402;2022-12-07T00:31:01;7.53;;;5.97;;
13228;SDS011;6680;53.220;10.402;2022-12-07T00:33:29;9.23;;;6.03;;
13228;SDS011;6680;53.220;10.402;2022-12-07T00:35:56;11.93;;;7.13;;
13228;SDS011;6680;53.220;10.402;2022-12-07T00:38:23;9.77;;;5.70;;
13228;SDS011;6680;53.220;10.402;2022-12-07T00:40:53;9.37;;;5.90;;
13228;SDS011;6680;53.220;10.402;2022-12-07T00:43:21;9.40;;;6.63;;
13228;SDS011;6680;53.220;10.402;2022-12-07T00:45:48;9.63;;;6.27;;
13228;SDS011;6680;53.220;10.402;2022-12-07T00:48:16;10.13;;;6.73;;
13228;SDS011;6680;53.220;10.402;2022-12-07T00:50:43;9.83;;;6.17;;
13228;SDS011;6680;53.220;10.402;2022-12-07T00:53:10;10.07;;;6.20;;
13228;SDS011;6680;53.220;10.402;2022-12-07T00:55:37;10.63;;;7.03;;
13228;SDS011;6680;53.220;10.402;2022-12-07T00:58:04;10.30;;;6.90;;
13228;SDS011;6680;53.220;10.402;2022-12-07T01:00:31;10.80;;;7.13;;
13228;SDS011;6680;53.220;10.402;2022-12-07T01:02:59;10.20;;;6.77;;
13228;SDS011;6680;53.220;10.402;2022-12-07T01:05:27;8.53;;;5.47;;
13228;SDS011;6680;53.220;10.402;2022-12-07T01:07:54;10.30;;;6.50;;
13228;SDS011;6680;53.220;10.402;2022-12-07T01:10:21;11.47;;;6.60;;
13228;SDS011;6680;53.220;10.402;2022-12-07T01:12:48;8.73;;;5.67;;
13228;SDS011;6680;53.220;10.402;2022-12-07T01:15:15;8.27;;;5.67;;
13228;SDS011;6680;53.220;10.402;2022-12-07T01:17:42;9.50;;;6.67;;
13228;SDS011;6680;53.220;10.402;2022-12-07T01:20:09;9.77;;;5.70;;
13228;SDS011;6680;53.220;10.402;2022-12-07T01:22:38;8.47;;;6.67;;
13228;SDS011;6680;53.220;10.402;2022-12-07T01:25:05;12.33;;;6.97;;
13228;SDS011;6680;53.220;10.402;2022-12-07T01:27:32;9.40;;;5.80;;
13228;SDS011;6680;53.220;10.402;2022-12-07T01:30:00;9.80;;;6.20;;
13228;SDS011;6680;53.220;10.402;2022-12-07T01:32:27;10.87;;;5.83;;
13228;SDS011;6680;53.220;10.402;2022-12-07T01:34:54;9.80;;;6.70;;
13228;SDS011;6680;53.220;10.402;2022-12-07T01:37:21;11.00;;;6.03;;
13228;SDS011;6680;53.220;10.402;2022-12-07T01:39:50;10.50;;;6.17;;
13228;SDS011;6680;53.220;10.402;2022-12-07T01:42:17;8.67;;;6.07;;
13228;SDS011;6680;53.220;10.402;2022-12-07T01:47:49;8.93;;;5.90;;
13228;SDS011;6680;53.220;10.402;2022-12-07T01:50:18;8.77;;;5.60;;
13228;SDS011;6680;53.220;10.402;2022-12-07T01:52:45;10.17;;;6.20;;
13228;SDS011;6680;53.220;10.402;2022-12-07T01:55:18;10.43;;;6.47;;
13228;SDS011;6680;53.220;10.402;2022-12-07T01:57:45;11.47;;;6.27;;
13228;SDS011;6680;53.220;10.402;2022-12-07T02:00:16;9.50;;;5.67;;
13228;SDS011;6680;53.220;10.402;2022-12-07T02:02:44;7.90;;;6.07;;
13228;SDS011;6680;53.220;10.402;2022-12-07T02:05:14;10.80;;;6.17;;
13228;SDS011;6680;53.220;10.402;2022-12-07T02:07:42;9.53;;;5.37;;
13228;SDS011;6680;53.220;10.402;2022-12-07T02:10:12;9.33;;;5.23;;
13228;SDS011;6680;53.220;10.402;2022-12-07T02:12:42;7.93;;;5.83;;
13228;SDS011;6680;53.220;10.402;2022-12-07T02:15:11;9.30;;;6.93;;
13228;SDS011;6680;53.220;10.402;2022-12-07T02:17:39;10.43;;;6.07;;
13228;SDS011;6680;53.220;10.402;2022-12-07T02:20:24;11.87;;;6.57;;
13228;SDS011;6680;53.220;10.402;2022-12-07T02:26:12;9.37;;;5.63;;
13228;SDS011;6680;53.220;10.402;2022-12-07T02:29:06;10.33;;;6.10;;
13228;SDS011;6680;53.220;10.402;2022-12-07T02:31:47;10.20;;;5.83;;
13228;SDS011;6680;53.220;10.402;2022-12-07T02:34:22;12.53;;;5.47;;
13228;SDS011;6680;53.220;10.402;2022-12-07T02:36:57;8.30;;;6.03;;
13228;SDS011;6680;53.220;10.402;2022-12-07T02:39:34;8.80;;;5.33;;
13228;SDS011;6680;53.220;10.402;2022-12-07T02:42:07;9.17;;;5.47;;
13228;SDS011;6680;53.220;10.402;2022-12-07T02:44:41;8.90;;;5.57;;
13228;SDS011;6680;53.220;10.402;2022-12-07T02:47:09;7.90;;;5.53;;
13228;SDS011;6680;53.220;10.402;2022-12-07T02:49:39;7.77;;;5.03;;
13228;SDS011;6680;53.220;10.402;2022-12-07T02:52:06;6.87;;;4.83;;
13228;SDS011;6680;53.220;10.402;2022-12-07T02:54:33;9.17;;;5.60;;
13228;SDS011;6680;53.220;10.402;2022-12-07T02:57:01;8.57;;;5.37;;
13228;SDS011;6680;53.220;10.402;2022-12-07T02:59:45;7.03;;;5.33;;
13228;SDS011;6680;53.220;10.402;2022-12-07T03:02:25;10.97;;;5.67;;
13228;SDS011;6680;53.220;10.402;2022-12-07T03:05:01;6.07;;;4.47;;
13228;SDS011;6680;53.220;10.402;2022-12-07T03:07:41;9.57;;;4.60;;
13228;SDS011;6680;53.220;10.402;2022-12-07T03:10:16;7.57;;;4.73;;
13228;SDS011;6680;53.220;10.402;2022-12-07T03:12:50;6.90;;;4.83;;
13228;SDS011;6680;53.220;10.402;2022-12-07T03:15:26;10.90;;;4.60;;
13228;SDS011;6680;53.220;10.402;2022-12-07T03:17:55;6.63;;;4.10;;
13228;SDS011;6680;53.220;10.402;2022-12-07T03:20:25;6.50;;;4.13;;
13228;SDS011;6680;53.220;10.402;2022-12-07T03:22:53;6.57;;;4.60;;
13228;SDS011;6680;53.220;10.402;2022-12-07T03:25:21;6.40;;;4.03;;
13228;SDS011;6680;53.220;10.402;2022-12-07T03:27:49;6.13;;;4.53;;
13228;SDS011;6680;53.220;10.402;2022-12-07T03:30:22;6.03;;;3.73;;
13228;SDS011;6680;53.220;10.402;2022-12-07T03:32:54;7.53;;;4.13;;
13228;SDS011;6680;53.220;10.402;2022-12-07T03:35:27;10.23;;;4.63;;
13228;SDS011;6680;53.220;10.402;2022-12-07T03:37:58;7.00;;;3.70;;
13228;SDS011;6680;53.220;10.402;2022-12-07T03:40:28;7.17;;;3.27;;
13228;SDS011;6680;53.220;10.402;2022-12-07T03:42:59;5.53;;;3.87;;
13228;SDS011;6680;53.220;10.402;2022-12-07T03:45:31;4.93;;;4.20;;
13228;SDS011;6680;53.220;10.402;2022-12-07T03:48:05;4.97;;;3.60;;
13228;SDS011;6680;53.220;10.402;2022-12-07T03:50:37;6.23;;;4.00;;
13228;SDS011;6680;53.220;10.402;2022-12-07T03:53:09;6.80;;;3.90;;
13228;SDS011;6680;53.220;10.402;2022-12-07T03:55:42;6.73;;;3.53;;
13228;SDS011;6680;53.220;10.402;2022-12-07T03:58:11;9.27;;;3.93;;
13228;SDS011;6680;53.220;10.402;2022-12-07T04:00:41;5.53;;;3.43;;
13228;SDS011;6680;53.220;10.402;2022-12-07T04:03:09;7.93;;;3.27;;
13228;SDS011;6680;53.220;10.402;2022-12-07T04:05:36;4.63;;;3.27;;
13228;SDS011;6680;53.220;10.402;2022-12-07T04:08:04;4.47;;;3.33;;
13228;SDS011;6680;53.220;10.402;2022-12-07T04:10:30;3.80;;;3.00;;
13228;SDS011;6680;53.220;10.402;2022-12-07T04:12:57;4.33;;;3.50;;
13228;SDS011;6680;53.220;10.402;2022-12-07T04:15:24;4.60;;;3.17;;
13228;SDS011;6680;53.220;10.402;2022-12-07T04:17:52;3.97;;;3.47;;
13228;SDS011;6680;53.220;10.402;2022-12-07T04:20:19;4.03;;;2.80;;
13228;SDS011;6680;53.220;10.402;2022-12-07T04:22:46;5.10;;;3.43;;
13228;SDS011;6680;53.220;10.402;2022-12-07T04:25:13;6.47;;;3.67;;
13228;SDS011;6680;53.220;10.402;2022-12-07T04:27:40;7.37;;;3.17;;
13228;SDS011;6680;53.220;10.402;2022-12-07T04:30:07;3.37;;;3.00;;
13228;SDS011;6680;53.220;10.402;2022-12-07T04:32:35;9.77;;;3.37;;
13228;SDS011;6680;53.220;10.402;2022-12-07T04:35:03;9.73;;;3.30;;
13228;SDS011;6680;53.220;10.402;2022-12-07T04:37:31;5.53;;;3.10;;
13228;SDS011;6680;53.220;10.402;2022-12-07T04:39:58;5.87;;;2.77;;
13228;SDS011;6680;53.220;10.402;2022-12-07T04:42:24;4.40;;;2.93;;
13228;SDS011;6680;53.220;10.402;2022-12-07T04:44:51;4.20;;;2.97;;
13228;SDS011;6680;53.220;10.402;2022-12-07T04:47:18;3.60;;;3.07;;
13228;SDS011;6680;53.220;10.402;2022-12-07T04:49:45;5.80;;;3.13;;
13228;SDS011;6680;53.220;10.402;2022-12-07T04:52:13;5.60;;;3.17;;
13228;SDS011;6680;53.220;10.402;2022-12-07T04:54:40;3.77;;;3.00;;
13228;SDS011;6680;53.220;10.402;2022-12-07T04:57:07;3.63;;;3.27;;
13228;SDS011;6680;53.220;10.402;2022-12-07T04:59:33;3.60;;;2.50;;
13228;SDS011;6680;53.220;10.402;2022-12-07T05:02:00;3.07;;;2.67;;
13228;SDS011;6680;53.220;10.402;2022-12-07T05:04:27;7.27;;;3.10;;
13228;SDS011;6680;53.220;10.402;2022-12-07T05:06:53;4.50;;;3.10;;
13228;SDS011;6680;53.220;10.402;2022-12-07T05:09:22;3.43;;;2.83;;
13228;SDS011;6680;53.220;10.402;2022-12-07T05:11:48;3.93;;;2.63;;
13228;SDS011;6680;53.220;10.402;2022-12-07T05:14:16;6.00;;;2.37;;
13228;SDS011;6680;53.220;10.402;2022-12-07T05:16:45;3.43;;;2.97;;
13228;SDS011;6680;53.220;10.402;2022-12-07T05:19:14;4.40;;;2.97;;
13228;SDS011;6680;53.220;10.402;2022-12-07T05:21:42;2.53;;;2.30;;
13228;SDS011;6680;53.220;10.402;2022-12-07T05:24:09;5.03;;;2.47;;
13228;SDS011;6680;53.220;10.402;2022-12-07T05:26:39;4.90;;;3.10;;
13228;SDS011;6680;53.220;10.402;2022-12-07T05:29:06;2.67;;;2.17;;
13228;SDS011;6680;53.220;10.402;2022-12-07T05:31:33;4.50;;;3.30;;
13228;SDS011;6680;53.220;10.402;2022-12-07T05:34:00;7.63;;;3.10;;
13228;SDS011;6680;53.220;10.402;2022-12-07T05:36:27;6.23;;;2.53;;
13228;SDS011;6680;53.220;10.402;2022-12-07T05:38:56;3.13;;;2.50;;
13228;SDS011;6680;53.220;10.402;2022-12-07T05:41:22;4.27;;;2.83;;
13228;SDS011;6680;53.220;10.402;2022-12-07T05:44:08;3.87;;;2.60;;
13228;SDS011;6680;53.220;10.402;2022-12-07T05:46:35;4.07;;;2.27;;
13228;SDS011;6680;53.220;10.402;2022-12-07T05:49:02;2.87;;;2.57;;
13228;SDS011;6680;53.220;10.402;2022-12-07T05:51:29;3.23;;;2.60;;
13228;SDS011;6680;53.220;10.402;2022-12-07T05:53:56;3.57;;;2.60;;
13228;SDS011;6680;53.220;10.402;2022-12-07T05:56:23;6.03;;;2.67;;
13228;SDS011;6680;53.220;10.402;2022-12-07T05:58:51;3.00;;;2.37;;
13228;SDS011;6680;53.220;10.402;2022-12-07T06:01:36;2.83;;;2.50;;
13228;SDS011;6680;53.220;10.402;2022-12-07T06:04:03;2.57;;;2.23;;
13228;SDS011;6680;53.220;10.402;2022-12-07T06:06:30;3.13;;;2.40;;
13228;SDS011;6680;53.220;10.402;2022-12-07T06:08:57;3.63;;;2.60;;
13228;SDS011;6680;53.220;10.402;2022-12-07T06:11:23;2.73;;;2.30;;
13228;SDS011;6680;53.220;10.402;2022-12-07T06:14:07;3.27;;;2.13;;
13228;SDS011;6680;53.220;10.402;2022-12-07T06:16:34;7.07;;;2.57;;
13228;SDS011;6680;53.220;10.402;2022-12-07T06:19:02;4.63;;;2.40;;
13228;SDS011;6680;53.220;10.402;2022-12-07T06:21:29;3.37;;;2.77;;
13228;SDS011;6680;53.220;10.402;2022-12-07T06:23:56;6.73;;;2.70;;
13228;SDS011;6680;53.220;10.402;2022-12-07T06:26:23;3.00;;;2.53;;
13228;SDS011;6680;53.220;10.402;2022-12-07T06:28:50;2.30;;;2.10;;
13228;SDS011;6680;53.220;10.402;2022-12-07T06:31:17;2.93;;;2.73;;
13228;SDS011;6680;53.220;10.402;2022-12-07T06:33:45;2.40;;;2.20;;
13228;SDS011;6680;53.220;10.402;2022-12-07T06:36:12;13.13;;;3.10;;
13228;SDS011;6680;53.220;10.402;2022-12-07T06:38:38;3.13;;;2.20;;
13228;SDS011;6680;53.220;10.402;2022-12-07T06:41:05;2.50;;;2.00;;
13228;SDS011;6680;53.220;10.402;2022-12-07T06:43:32;3.43;;;2.43;;
13228;SDS011;6680;53.220;10.402;2022-12-07T06:45:59;2.30;;;2.00;;
13228;SDS011;6680;53.220;10.402;2022-12-07T06:48:26;4.43;;;2.73;;
13228;SDS011;6680;53.220;10.402;2022-12-07T06:50:54;4.30;;;2.80;;
13228;SDS011;6680;53.220;10.402;2022-12-07T06:53:20;5.60;;;2.73;;
13228;SDS011;6680;53.220;10.402;2022-12-07T06:55:47;5.10;;;3.10;;
13228;SDS011;6680;53.220;10.402;2022-12-07T06:58:14;4.33;;;2.50;;
13228;SDS011;6680;53.220;10.402;2022-12-07T07:00:41;3.37;;;2.27;;
13228;SDS011;6680;53.220;10.402;2022-12-07T07:03:07;4.07;;;2.60;;
13228;SDS011;6680;53.220;10.402;2022-12-07T07:05:34;3.27;;;2.57;;
13228;SDS011;6680;53.220;10.402;2022-12-07T07:08:03;3.97;;;2.93;;
13228;SDS011;6680;53.220;10.402;2022-12-07T07:10:30;3.53;;;2.60;;
13228;SDS011;6680;53.220;10.402;2022-12-07T07:12:57;3.37;;;2.83;;
13228;SDS011;6680;53.220;10.402;2022-12-07T07:15:24;2.93;;;2.40;;
13228;SDS011;6680;53.220;10.402;2022-12-07T07:17:50;4.57;;;3.07;;
13228;SDS011;6680;53.220;10.402;2022-12-07T07:20:17;5.10;;;2.50;;
13228;SDS011;6680;53.220;10.402;2022-12-07T07:22:44;9.87;;;2.83;;
13228;SDS011;6680;53.220;10.402;2022-12-07T07:25:12;2.83;;;2.20;;
13228;SDS011;6680;53.220;10.402;2022-12-07T07:27:39;3.20;;;2.10;;
13228;SDS011;6680;53.220;10.402;2022-12-07T07:30:06;2.30;;;2.10;;
13228;SDS011;6680;53.220;10.402;2022-12-07T07:32:34;2.77;;;2.50;;
13228;SDS011;6680;53.220;10.402;2022-12-07T07:35:00;3.07;;;2.33;;
13228;SDS011;6680;53.220;10.402;2022-12-07T07:37:27;2.57;;;2.30;;
13228;SDS011;6680;53.220;10.402;2022-12-07T07:39:54;2.60;;;2.27;;
13228;SDS011;6680;53.220;10.402;2022-12-07T07:42:22;3.57;;;2.40;;
13228;SDS011;6680;53.220;10.402;2022-12-07T07:44:49;3.63;;;2.50;;
13228;SDS011;6680;53.220;10.402;2022-12-07T07:47:15;4.27;;;2.67;;
13228;SDS011;6680;53.220;10.402;2022-12-07T07:49:42;4.00;;;2.50;;
13228;SDS011;6680;53.220;10.402;2022-12-07T07:52:09;2.63;;;2.43;;
13228;SDS011;6680;53.220;10.402;2022-12-07T07:54:36;4.27;;;2.70;;
13228;SDS011;6680;53.220;10.402;2022-12-07T07:57:03;2.40;;;2.20;;
13228;SDS011;6680;53.220;10.402;2022-12-07T07:59:31;4.50;;;3.07;;
13228;SDS011;6680;53.220;10.402;2022-12-07T08:01:57;6.10;;;2.70;;
13228;SDS011;6680;53.220;10.402;2022-12-07T08:04:24;2.83;;;2.50;;
13228;SDS011;6680;53.220;10.402;2022-12-07T08:06:51;2.90;;;2.40;;
13228;SDS011;6680;53.220;10.402;2022-12-07T08:09:18;3.33;;;2.60;;
13228;SDS011;6680;53.220;10.402;2022-12-07T08:11:44;2.43;;;2.23;;
13228;SDS011;6680;53.220;10.402;2022-12-07T08:14:11;3.00;;;2.70;;
13228;SDS011;6680;53.220;10.402;2022-12-07T08:16:39;3.40;;;2.40;;
13228;SDS011;6680;53.220;10.402;2022-12-07T08:19:06;2.90;;;2.60;;
13228;SDS011;6680;53.220;10.402;2022-12-07T08:21:33;3.47;;;2.40;;
13228;SDS011;6680;53.220;10.402;2022-12-07T08:24:00;3.70;;;2.40;;
13228;SDS011;6680;53.220;10.402;2022-12-07T08:26:26;6.77;;;2.37;;
13228;SDS011;6680;53.220;10.402;2022-12-07T08:28:53;4.87;;;2.50;;
13228;SDS011;6680;53.220;10.402;2022-12-07T08:31:20;2.60;;;2.00;;
13228;SDS011;6680;53.220;10.402;2022-12-07T08:33:49;3.93;;;2.83;;
13228;SDS011;6680;53.220;10.402;2022-12-07T08:36:16;2.80;;;2.37;;
13228;SDS011;6680;53.220;10.402;2022-12-07T08:38:43;3.07;;;2.10;;
13228;SDS011;6680;53.220;10.402;2022-12-07T08:41:10;4.13;;;2.47;;
13228;SDS011;6680;53.220;10.402;2022-12-07T08:43:36;3.73;;;2.30;;
13228;SDS011;6680;53.220;10.402;2022-12-07T08:46:05;3.00;;;1.80;;
13228;SDS011;6680;53.220;10.402;2022-12-07T08:48:34;2.93;;;2.10;;
13228;SDS011;6680;53.220;10.402;2022-12-07T08:51:05;6.50;;;3.50;;
13228;SDS011;6680;53.220;10.402;2022-12-07T08:53:32;2.87;;;2.00;;
13228;SDS011;6680;53.220;10.402;2022-12-07T08:56:00;3.40;;;2.50;;
13228;SDS011;6680;53.220;10.402;2022-12-07T08:58:27;4.57;;;2.80;;
13228;SDS011;6680;53.220;10.402;2022-12-07T09:00:54;3.20;;;2.10;;
13228;SDS011;6680;53.220;10.402;2022-12-07T09:03:21;2.67;;;2.43;;
13228;SDS011;6680;53.220;10.402;2022-12-07T09:05:48;3.60;;;2.27;;
13228;SDS011;6680;53.220;10.402;2022-12-07T09:08:16;3.17;;;2.47;;
13228;SDS011;6680;53.220;10.402;2022-12-07T09:10:43;2.67;;;2.27;;
13228;SDS011;6680;53.220;10.402;2022-12-07T09:13:09;2.53;;;2.33;;
13228;SDS011;6680;53.220;10.402;2022-12-07T09:15:36;2.40;;;1.77;;
13228;SDS011;6680;53.220;10.402;2022-12-07T09:18:03;2.57;;;2.37;;
13228;SDS011;6680;53.220;10.402;2022-12-07T09:20:29;2.67;;;2.17;;
13228;SDS011;6680;53.220;10.402;2022-12-07T09:22:56;1.97;;;1.77;;
13228;SDS011;6680;53.220;10.402;2022-12-07T09:25:24;2.50;;;2.17;;
13228;SDS011;6680;53.220;10.402;2022-12-07T09:27:54;3.53;;;2.10;;
13228;SDS011;6680;53.220;10.402;2022-12-07T09:30:22;2.67;;;2.47;;
13228;SDS011;6680;53.220;10.402;2022-12-07T09:32:49;4.90;;;2.60;;
13228;SDS011;6680;53.220;10.402;2022-12-07T09:35:15;3.07;;;2.00;;
13228;SDS011;6680;53.220;10.402;2022-12-07T09:37:43;2.33;;;2.13;;
13228;SDS011;6680;53.220;10.402;2022-12-07T09:40:09;3.50;;;2.33;;
13228;SDS011;6680;53.220;10.402;2022-12-07T09:42:39;3.50;;;2.00;;
13228;SDS011;6680;53.220;10.402;2022-12-07T09:45:11;2.10;;;1.90;;
13228;SDS011;6680;53.220;10.402;2022-12-07T09:47:41;2.20;;;2.00;;
13228;SDS011;6680;53.220;10.402;2022-12-07T09:50:12;2.20;;;2.00;;
13228;SDS011;6680;53.220;10.402;2022-12-07T09:52:41;8.77;;;2.27;;
13228;SDS011;6680;53.220;10.402;2022-12-07T09:55:10;3.90;;;1.80;;
13228;SDS011;6680;53.220;10.402;2022-12-07T09:57:40;2.67;;;1.83;;
13228;SDS011;6680;53.220;10.402;2022-12-07T10:00:11;5.27;;;2.60;;
13228;SDS011;6680;53.220;10.402;2022-12-07T10:02:42;3.37;;;1.97;;
13228;SDS011;6680;53.220;10.402;2022-12-07T10:05:12;2.67;;;1.80;;
13228;SDS011;6680;53.220;10.402;2022-12-07T10:07:41;3.47;;;1.70;;
13228;SDS011;6680;53.220;10.402;2022-12-07T10:10:12;5.97;;;2.70;;
13228;SDS011;6680;53.220;10.402;2022-12-07T10:12:56;1.87;;;1.77;;
13228;SDS011;6680;53.220;10.402;2022-12-07T10:18:16;2.53;;;1.70;;
13228;SDS011;6680;53.220;10.402;2022-12-07T10:23:58;2.67;;;2.33;;
13228;SDS011;6680;53.220;10.402;2022-12-07T10:26:27;2.33;;;1.97;;
13228;SDS011;6680;53.220;10.402;2022-12-07T10:28:59;2.80;;;1.70;;
13228;SDS011;6680;53.220;10.402;2022-12-07T10:31:28;1.73;;;1.63;;
13228;SDS011;6680;53.220;10.402;2022-12-07T10:33:55;2.67;;;1.93;;
13228;SDS011;6680;53.220;10.402;2022-12-07T10:36:24;4.33;;;1.43;;
13228;SDS011;6680;53.220;10.402;2022-12-07T10:38:58;5.30;;;1.67;;
13228;SDS011;6680;53.220;10.402;2022-12-07T10:41:28;5.83;;;1.77;;
13228;SDS011;6680;53.220;10.402;2022-12-07T10:43:55;1.67;;;1.57;;
13228;SDS011;6680;53.220;10.402;2022-12-07T10:46:35;3.40;;;1.80;;
13228;SDS011;6680;53.220;10.402;2022-12-07T10:49:34;2.43;;;1.30;;
13228;SDS011;6680;53.220;10.402;2022-12-07T10:52:17;2.23;;;1.20;;
13228;SDS011;6680;53.220;10.402;2022-12-07T10:54:51;2.87;;;1.67;;
13228;SDS011;6680;53.220;10.402;2022-12-07T10:57:37;1.60;;;1.50;;
13228;SDS011;6680;53.220;10.402;2022-12-07T11:00:15;2.63;;;1.27;;
13228;SDS011;6680;53.220;10.402;2022-12-07T11:02:53;3.77;;;1.53;;
13228;SDS011;6680;53.220;10.402;2022-12-07T11:05:48;1.17;;;1.17;;
13228;SDS011;6680;53.220;10.402;2022-12-07T11:08:21;2.90;;;1.63;;
13228;SDS011;6680;53.220;10.402;2022-12-07T11:11:02;1.20;;;1.20;;
13228;SDS011;6680;53.220;10.402;2022-12-07T11:13:37;2.73;;;1.30;;
13228;SDS011;6680;53.220;10.402;2022-12-07T11:16:16;2.50;;;1.33;;
13228;SDS011;6680;53.220;10.402;2022-12-07T11:18:53;1.33;;;1.23;;
13228;SDS011;6680;53.220;10.402;2022-12-07T11:21:30;1.50;;;1.40;;
13228;SDS011;6680;53.220;10.402;2022-12-07T11:24:09;1.27;;;1.20;;
13228;SDS011;6680;53.220;10.402;2022-12-07T11:26:47;2.47;;;1.97;;
13228;SDS011;6680;53.220;10.402;2022-12-07T11:29:28;1.50;;;1.27;;
13228;SDS011;6680;53.220;10.402;2022-12-07T11:32:14;1.50;;;1.40;;
13228;SDS011;6680;53.220;10.402;2022-12-07T11:34:51;2.80;;;2.00;;
13228;SDS011;6680;53.220;10.402;2022-12-07T11:37:25;1.80;;;1.70;;
13228;SDS011;6680;53.220;10.402;2022-12-07T11:39:59;1.67;;;1.57;;
13228;SDS011;6680;53.220;10.402;2022-12-07T11:42:29;1.60;;;1.50;;
13228;SDS011;6680;53.220;10.402;2022-12-07T11:45:01;1.70;;;1.60;;
13228;SDS011;6680;53.220;10.402;2022-12-07T11:47:36;2.60;;;1.30;;
13228;SDS011;6680;53.220;10.402;2022-12-07T11:50:14;1.50;;;1.40;;
13228;SDS011;6680;53.220;10.402;2022-12-07T11:52:51;3.67;;;1.70;;
13228;SDS011;6680;53.220;10.402;2022-12-07T11:55:24;4.27;;;1.80;;
13228;SDS011;6680;53.220;10.402;2022-12-07T11:57:57;1.70;;;1.60;;
13228;SDS011;6680;53.220;10.402;2022-12-07T12:00:29;2.27;;;1.90;;
13228;SDS011;6680;53.220;10.402;2022-12-07T12:02:57;5.83;;;2.03;;
13228;SDS011;6680;53.220;10.402;2022-12-07T12:05:29;1.83;;;1.70;;
13228;SDS011;6680;53.220;10.402;2022-12-07T12:07:59;2.80;;;1.33;;
13228;SDS011;6680;53.220;10.402;2022-12-07T12:10:34;1.40;;;1.40;;
13228;SDS011;6680;53.220;10.402;2022-12-07T12:13:12;3.00;;;1.37;;
13228;SDS011;6680;53.220;10.402;2022-12-07T12:16:06;1.77;;;1.67;;
13228;SDS011;6680;53.220;10.402;2022-12-07T12:18:48;1.90;;;1.70;;
13228;SDS011;6680;53.220;10.402;2022-12-07T12:21:25;3.00;;;1.70;;
13228;SDS011;6680;53.220;10.402;2022-12-07T12:23:55;3.03;;;2.00;;
13228;SDS011;6680;53.220;10.402;2022-12-07T12:26:26;1.90;;;1.53;;
13228;SDS011;6680;53.220;10.402;2022-12-07T12:28:55;5.20;;;1.93;;
13228;SDS011;6680;53.220;10.402;2022-12-07T12:31:32;1.43;;;1.40;;
13228;SDS011;6680;53.220;10.402;2022-12-07T12:34:02;6.40;;;1.87;;
13228;SDS011;6680;53.220;10.402;2022-12-07T12:36:45;4.83;;;1.57;;
13228;SDS011;6680;53.220;10.402;2022-12-07T12:39:13;1.70;;;1.60;;
13228;SDS011;6680;53.220;10.402;2022-12-07T12:41:51;2.13;;;2.03;;
13228;SDS011;6680;53.220;10.402;2022-12-07T12:50:54;2.13;;;1.80;;
13228;SDS011;6680;53.220;10.402;2022-12-07T12:54:04;2.13;;;1.63;;
13228;SDS011;6680;53.220;10.402;2022-12-07T12:56:38;3.07;;;2.07;;
13228;SDS011;6680;53.220;10.402;2022-12-07T12:59:21;3.57;;;2.23;;
13228;SDS011;6680;53.220;10.402;2022-12-07T13:01:50;3.70;;;1.80;;
13228;SDS011;6680;53.220;10.402;2022-12-07T13:04:27;3.97;;;1.97;;
13228;SDS011;6680;53.220;10.402;2022-12-07T13:07:03;3.27;;;1.50;;
13228;SDS011;6680;53.220;10.402;2022-12-07T13:09:32;1.70;;;1.60;;
13228;SDS011;6680;53.220;10.402;2022-12-07T13:12:02;5.43;;;1.80;;
13228;SDS011;6680;53.220;10.402;2022-12-07T13:20:42;5.80;;;1.93;;
13228;SDS011;6680;53.220;10.402;2022-12-07T13:23:14;8.33;;;2.00;;
13228;SDS011;6680;53.220;10.402;2022-12-07T13:25:49;3.00;;;1.87;;
13228;SDS011;6680;53.220;10.402;2022-12-07T13:28:21;3.90;;;1.70;;
13228;SDS011;6680;53.220;10.402;2022-12-07T13:30:59;4.63;;;1.57;;
13228;SDS011;6680;53.220;10.402;2022-12-07T13:33:30;1.70;;;1.60;;
13228;SDS011;6680;53.220;10.402;2022-12-07T13:36:00;2.23;;;1.60;;
13228;SDS011;6680;53.220;10.402;2022-12-07T13:38:28;1.37;;;1.27;;
13228;SDS011;6680;53.220;10.402;2022-12-07T13:41:01;2.13;;;1.60;;
13228;SDS011;6680;53.220;10.402;2022-12-07T13:43:29;2.43;;;1.50;;
13228;SDS011;6680;53.220;10.402;2022-12-07T13:45:56;5.50;;;1.53;;
13228;SDS011;6680;53.220;10.402;2022-12-07T13:48:27;5.03;;;1.80;;
13228;SDS011;6680;53.220;10.402;2022-12-07T13:50:58;6.60;;;2.03;;
13228;SDS011;6680;53.220;10.402;2022-12-07T13:53:27;4.97;;;1.60;;
13228;SDS011;6680;53.220;10.402;2022-12-07T13:55:55;1.70;;;1.53;;
13228;SDS011;6680;53.220;10.402;2022-12-07T13:58:33;2.10;;;1.90;;
13228;SDS011;6680;53.220;10.402;2022-12-07T14:01:00;5.40;;;2.07;;
13228;SDS011;6680;53.220;10.402;2022-12-07T14:03:28;1.80;;;1.70;;
13228;SDS011;6680;53.220;10.402;2022-12-07T14:06:07;3.37;;;1.77;;
13228;SDS011;6680;53.220;10.402;2022-12-07T14:08:44;5.77;;;1.70;;
13228;SDS011;6680;53.220;10.402;2022-12-07T14:11:13;1.93;;;1.60;;
13228;SDS011;6680;53.220;10.402;2022-12-07T14:13:49;2.70;;;1.77;;
13228;SDS011;6680;53.220;10.402;2022-12-07T14:16:24;3.53;;;2.20;;
13228;SDS011;6680;53.220;10.402;2022-12-07T14:18:54;1.87;;;1.77;;
13228;SDS011;6680;53.220;10.402;2022-12-07T14:21:22;5.40;;;1.60;;
13228;SDS011;6680;53.220;10.402;2022-12-07T14:24:10;2.13;;;1.60;;
13228;SDS011;6680;53.220;10.402;2022-12-07T14:26:40;3.87;;;2.00;;
13228;SDS011;6680;53.220;10.402;2022-12-07T14:29:21;3.23;;;2.07;;
13228;SDS011;6680;53.220;10.402;2022-12-07T14:31:56;2.40;;;2.20;;
13228;SDS011;6680;53.220;10.402;2022-12-07T14:34:24;3.63;;;2.00;;
13228;SDS011;6680;53.220;10.402;2022-12-07T14:36:51;1.87;;;1.63;;
13228;SDS011;6680;53.220;10.402;2022-12-07T14:39:18;1.77;;;1.67;;
13228;SDS011;6680;53.220;10.402;2022-12-07T14:41:45;2.73;;;2.00;;
13228;SDS011;6680;53.220;10.402;2022-12-07T14:44:18;1.67;;;1.57;;
13228;SDS011;6680;53.220;10.402;2022-12-07T14:46:47;1.40;;;1.30;;
13228;SDS011;6680;53.220;10.402;2022-12-07T14:49:14;2.33;;;1.60;;
13228;SDS011;6680;53.220;10.402;2022-12-07T14:51:42;1.83;;;1.70;;
13228;SDS011;6680;53.220;10.402;2022-12-07T14:54:12;3.17;;;2.10;;
13228;SDS011;6680;53.220;10.402;2022-12-07T14:56:41;1.83;;;1.73;;
13228;SDS011;6680;53.220;10.402;2022-12-07T14:59:09;3.80;;;1.77;;
13228;SDS011;6680;53.220;10.402;2022-12-07T15:01:36;1.90;;;1.80;;
13228;SDS011;6680;53.220;10.402;2022-12-07T15:04:04;2.70;;;1.60;;
13228;SDS011;6680;53.220;10.402;2022-12-07T15:06:31;2.23;;;1.97;;
13228;SDS011;6680;53.220;10.402;2022-12-07T15:08:58;3.40;;;1.77;;
13228;SDS011;6680;53.220;10.402;2022-12-07T15:11:25;1.80;;;1.40;;
13228;SDS011;6680;53.220;10.402;2022-12-07T15:13:52;2.30;;;1.40;;
13228;SDS011;6680;53.220;10.402;2022-12-07T15:16:34;3.73;;;1.80;;
13228;SDS011;6680;53.220;10.402;2022-12-07T15:19:01;3.67;;;1.80;;
13228;SDS011;6680;53.220;10.402;2022-12-07T15:21:29;2.63;;;1.87;;
13228;SDS011;6680;53.220;10.402;2022-12-07T15:23:56;1.97;;;1.87;;
13228;SDS011;6680;53.220;10.402;2022-12-07T15:26:23;1.60;;;1.50;;
13228;SDS011;6680;53.220;10.402;2022-12-07T15:28:50;3.90;;;1.70;;